createdAt,value
2019-03-03T00:01:12.344Z,99100.72
2019-03-03T00:03:39.056Z,99121.41
2019-03-03T00:06:05.936Z,99116.24
2019-03-03T00:08:32.732Z,99115.83
2019-03-03T00:10:59.454Z,99117.92
2019-03-03T00:13:26.030Z,99114.45
2019-03-03T00:15:52.713Z,99131.59
2019-03-03T00:18:19.283Z,99103.64
2019-03-03T00:20:45.874Z,99119.35
2019-03-03T00:23:12.663Z,99109.42
2019-03-03T00:25:39.945Z,99100.91
2019-03-03T00:28:06.830Z,99045.84
2019-03-03T00:30:40.959Z,99102.16
2019-03-03T00:33:07.750Z,99087.56
2019-03-03T00:35:34.577Z,99115.28
2019-03-03T00:38:22.679Z,99127.25
2019-03-03T00:41:11.977Z,99113.34
2019-03-03T00:44:10.195Z,99087.48
2019-03-03T00:47:08.544Z,99106.83
2019-03-03T00:49:49.959Z,99105.31
2019-03-03T00:52:34.328Z,99121.20
2019-03-03T00:55:11.012Z,99118.94
2019-03-03T00:57:57.301Z,99117.37
2019-03-03T01:00:32.655Z,99126.42
2019-03-03T01:03:13.852Z,99118.61
2019-03-03T01:06:03.110Z,99120.56
2019-03-03T01:08:58.311Z,99085.64
2019-03-03T01:11:47.516Z,99119.95
2019-03-03T01:14:21.569Z,99094.77
2019-03-03T01:17:03.493Z,99104.19
2019-03-03T01:19:49.719Z,99101.71
2019-03-03T01:22:23.397Z,99095.13
2019-03-03T01:24:55.428Z,99091.50
2019-03-03T01:27:23.196Z,99067.97
2019-03-03T01:29:49.966Z,99081.70
2019-03-03T01:32:16.666Z,99089.69
2019-03-03T01:34:43.370Z,99085.00
2019-03-03T01:37:10.083Z,99057.82
2019-03-03T01:39:36.858Z,99068.86
2019-03-03T01:42:03.718Z,99069.47
2019-03-03T01:44:30.407Z,99073.88
2019-03-03T01:46:57.105Z,99072.20
2019-03-03T01:49:24.180Z,99068.04
2019-03-03T01:51:50.771Z,98994.83
2019-03-03T01:54:17.438Z,99056.78
2019-03-03T01:56:44.144Z,99056.05
2019-03-03T01:59:10.955Z,99055.22
2019-03-03T02:01:37.756Z,99049.17
2019-03-03T02:04:04.724Z,99037.25
2019-03-03T02:06:31.540Z,99042.15
2019-03-03T02:08:58.213Z,99042.23
2019-03-03T02:11:25.105Z,99011.52
2019-03-03T02:13:52.095Z,99011.50
2019-03-03T02:16:18.871Z,99014.44
2019-03-03T02:18:45.758Z,99010.89
2019-03-03T02:21:12.540Z,99002.52
2019-03-03T02:23:39.337Z,99032.97
2019-03-03T02:26:06.115Z,99000.13
2019-03-03T02:28:32.820Z,98988.08
2019-03-03T02:30:59.603Z,98988.30
2019-03-03T02:33:26.397Z,98967.73
2019-03-03T02:35:53.296Z,98979.49
2019-03-03T02:38:20.001Z,98985.49
2019-03-03T02:40:47.070Z,98978.27
2019-03-03T02:43:13.873Z,98969.03
2019-03-03T02:45:40.702Z,98967.59
2019-03-03T02:48:07.384Z,98959.07
2019-03-03T02:50:34.072Z,98966.48
2019-03-03T02:53:00.799Z,98960.30
2019-03-03T02:55:27.553Z,98946.73
2019-03-03T02:57:54.634Z,98936.56
2019-03-03T03:00:21.800Z,98942.97
2019-03-03T03:02:49.936Z,98937.55
2019-03-03T03:05:23.265Z,98912.28
2019-03-03T03:07:57.511Z,98921.63
2019-03-03T03:10:34.816Z,98920.66
2019-03-03T03:13:06.548Z,98937.77
2019-03-03T03:15:47.610Z,98926.44
2019-03-03T03:18:24.094Z,98936.41
2019-03-03T03:20:58.490Z,98911.64
2019-03-03T03:23:43.725Z,98930.71
2019-03-03T03:26:28.489Z,98912.34
2019-03-03T03:29:14.879Z,98888.52
2019-03-03T03:32:06.996Z,98908.44
2019-03-03T03:34:44.693Z,98904.34
2019-03-03T03:37:31.013Z,98899.31
2019-03-03T03:40:29.185Z,98905.31
2019-03-03T03:43:30.501Z,98916.20
2019-03-03T03:46:21.459Z,98897.41
2019-03-03T03:49:06.204Z,98893.38
2019-03-03T03:51:51.842Z,98885.60
2019-03-03T03:54:41.422Z,98889.02
2019-03-03T03:57:17.983Z,98877.84
2019-03-03T03:59:52.036Z,98875.77
2019-03-03T04:02:41.123Z,98884.72
2019-03-03T04:05:33.569Z,98868.18
2019-03-03T04:08:04.854Z,98867.91
2019-03-03T04:10:38.412Z,98841.52
2019-03-03T04:13:24.873Z,98864.58
2019-03-03T04:16:06.903Z,98868.67
2019-03-03T04:18:55.646Z,98857.22
2019-03-03T04:21:32.889Z,98844.16
2019-03-03T04:24:17.519Z,98863.11
2019-03-03T04:26:58.754Z,98845.80
2019-03-03T04:29:36.048Z,98839.58
2019-03-03T04:32:25.040Z,98846.38
2019-03-03T04:35:05.524Z,98835.92
2019-03-03T04:37:48.764Z,98835.45
2019-03-03T04:40:33.984Z,98821.82
2019-03-03T04:43:24.239Z,98820.47
2019-03-03T04:45:59.696Z,98822.59
2019-03-03T04:48:35.508Z,98818.86
2019-03-03T04:51:21.933Z,98829.39
2019-03-03T04:54:08.368Z,98824.73
2019-03-03T04:57:06.932Z,98827.17
2019-03-03T04:59:55.957Z,98839.05
2019-03-03T05:02:43.214Z,98836.34
2019-03-03T05:05:28.007Z,98826.87
2019-03-03T05:08:12.530Z,98829.64
2019-03-03T05:11:05.055Z,98816.61
2019-03-03T05:13:49.014Z,98828.73
2019-03-03T05:16:47.117Z,98832.29
2019-03-03T05:19:24.702Z,98823.23
2019-03-03T05:21:51.390Z,98824.47
2019-03-03T05:24:18.069Z,98815.54
2019-03-03T05:26:44.757Z,98818.19
2019-03-03T05:29:11.452Z,98795.55
2019-03-03T05:31:38.184Z,98799.53
2019-03-03T05:34:04.920Z,98806.27
2019-03-03T05:36:31.633Z,98799.38
2019-03-03T05:38:58.198Z,98807.30
2019-03-03T05:41:24.874Z,98805.66
2019-03-03T05:43:51.591Z,98807.45
2019-03-03T05:46:18.417Z,98802.44
2019-03-03T05:48:45.225Z,98807.20
2019-03-03T05:51:12.018Z,98771.59
2019-03-03T05:53:38.893Z,98793.28
2019-03-03T05:56:05.711Z,98804.48
2019-03-03T05:58:32.417Z,98809.14
2019-03-03T06:00:59.008Z,98761.48
2019-03-03T06:03:25.718Z,98792.44
2019-03-03T06:05:52.516Z,98792.28
2019-03-03T06:08:19.195Z,98775.47
2019-03-03T06:10:46.161Z,98787.26
2019-03-03T06:13:12.845Z,98759.20
2019-03-03T06:15:39.626Z,98775.20
2019-03-03T06:18:06.316Z,98755.50
2019-03-03T06:20:33.107Z,98772.53
2019-03-03T06:22:59.692Z,98769.57
2019-03-03T06:25:26.533Z,98775.02
2019-03-03T06:27:53.329Z,98795.84
2019-03-03T06:30:20.188Z,98772.33
2019-03-03T06:32:47.053Z,98764.55
2019-03-03T06:35:13.844Z,98763.42
2019-03-03T06:37:40.660Z,98762.38
2019-03-03T06:40:08.297Z,98759.49
2019-03-03T06:42:35.191Z,98756.80
2019-03-03T06:45:02.009Z,98750.13
2019-03-03T06:47:29.104Z,98735.27
2019-03-03T06:49:55.820Z,98754.73
2019-03-03T06:52:22.606Z,98748.58
2019-03-03T06:54:49.203Z,98753.81
2019-03-03T06:57:15.923Z,98722.43
2019-03-03T06:59:42.645Z,98750.09
2019-03-03T07:02:09.497Z,98752.73
2019-03-03T07:04:36.163Z,98742.01
2019-03-03T07:07:02.971Z,98740.14
2019-03-03T07:09:29.589Z,98742.38
2019-03-03T07:11:56.257Z,98730.97
2019-03-03T07:14:23.064Z,98750.66
2019-03-03T07:16:49.868Z,98747.08
2019-03-03T07:19:16.543Z,98747.22
2019-03-03T07:21:43.236Z,98749.72
2019-03-03T07:24:09.964Z,98730.69
2019-03-03T07:26:36.740Z,98751.94
2019-03-03T07:29:03.630Z,98746.28
2019-03-03T07:31:30.341Z,98758.63
2019-03-03T07:33:59.717Z,98745.26
2019-03-03T07:36:26.392Z,98756.52
2019-03-03T07:38:53.091Z,98763.62
2019-03-03T07:41:19.936Z,98771.54
2019-03-03T07:43:46.652Z,98770.84
2019-03-03T07:46:13.258Z,98746.67
2019-03-03T07:48:39.965Z,98772.45
2019-03-03T07:51:06.667Z,98761.39
2019-03-03T07:53:33.377Z,98771.89
2019-03-03T07:56:01.338Z,98776.90
2019-03-03T07:58:30.768Z,98780.58
2019-03-03T08:00:57.535Z,98776.22
2019-03-03T08:03:24.393Z,98767.03
2019-03-03T08:05:51.140Z,98773.16
2019-03-03T08:08:17.950Z,98787.19
2019-03-03T08:10:44.736Z,98782.02
2019-03-03T08:13:11.578Z,98765.95
2019-03-03T08:15:38.390Z,98787.67
2019-03-03T08:18:05.198Z,98779.53
2019-03-03T08:20:32.047Z,98781.41
2019-03-03T08:22:58.849Z,98797.20
2019-03-03T08:25:25.417Z,98778.83
2019-03-03T08:27:52.222Z,98771.33
2019-03-03T08:30:19.033Z,98794.84
2019-03-03T08:32:45.802Z,98780.97
2019-03-03T08:35:13.223Z,98783.80
2019-03-03T08:37:40.020Z,98790.47
2019-03-03T08:40:07.319Z,98804.29
2019-03-03T08:43:08.522Z,98824.89
2019-03-03T08:45:57.555Z,98800.11
2019-03-03T08:48:41.042Z,98803.28
2019-03-03T08:51:26.084Z,98798.19
2019-03-03T08:54:10.356Z,98792.62
2019-03-03T08:56:56.843Z,98811.34
2019-03-03T08:59:43.300Z,98807.08
2019-03-03T09:02:32.362Z,98786.53
2019-03-03T09:05:24.347Z,98785.02
2019-03-03T09:08:07.990Z,98817.74
2019-03-03T09:10:53.122Z,98789.19
2019-03-03T09:13:30.045Z,98790.94
2019-03-03T09:16:25.229Z,98804.97
2019-03-03T09:19:19.453Z,98777.02
2019-03-03T09:22:08.826Z,98809.80
2019-03-03T09:25:01.372Z,98802.05
2019-03-03T09:27:37.803Z,98820.70
2019-03-03T09:30:25.201Z,98805.18
2019-03-03T09:33:03.240Z,98803.34
2019-03-03T09:35:38.087Z,98810.02
2019-03-03T09:38:16.193Z,98812.64
2019-03-03T09:41:08.378Z,98807.87
2019-03-03T09:43:57.429Z,98810.88
2019-03-03T09:46:46.707Z,98815.91
2019-03-03T09:49:27.970Z,98821.33
2019-03-03T09:52:21.700Z,98803.13
2019-03-03T09:55:10.906Z,98806.31
2019-03-03T09:57:59.960Z,98814.94
2019-03-03T10:00:58.312Z,98813.18
2019-03-03T10:03:40.342Z,98811.28
2019-03-03T10:06:26.234Z,98804.05
2019-03-03T10:09:30.584Z,98812.02
2019-03-03T10:12:08.456Z,98798.25
2019-03-03T10:14:54.944Z,98777.81
2019-03-03T10:17:32.751Z,98807.09
2019-03-03T10:20:14.791Z,98803.07
2019-03-03T10:23:00.065Z,98796.73
2019-03-03T10:25:45.068Z,98803.98
2019-03-03T10:28:46.609Z,98795.12
2019-03-03T10:31:31.357Z,98796.44
2019-03-03T10:34:08.812Z,98809.59
2019-03-03T10:36:57.823Z,98804.14
2019-03-03T10:39:44.169Z,98802.89
2019-03-03T10:42:19.018Z,98795.20
2019-03-03T10:45:20.365Z,98790.91
2019-03-03T10:48:06.823Z,98784.51
2019-03-03T10:50:51.441Z,98787.69
2019-03-03T10:53:46.929Z,98793.28
2019-03-03T10:56:30.687Z,98791.61
2019-03-03T10:59:23.080Z,98787.67
2019-03-03T11:02:14.365Z,98786.20
2019-03-03T11:05:12.879Z,98774.03
2019-03-03T11:07:59.304Z,98770.09
2019-03-03T11:10:57.600Z,98777.84
2019-03-03T11:13:32.058Z,98768.95
2019-03-03T11:16:12.011Z,98777.67
2019-03-03T11:18:56.028Z,98767.33
2019-03-03T11:21:30.271Z,98777.80
2019-03-03T11:24:10.300Z,98773.76
2019-03-03T11:27:02.568Z,98775.00
2019-03-03T11:29:48.907Z,98762.36
2019-03-03T11:32:24.691Z,98768.73
2019-03-03T11:35:03.361Z,98757.49
2019-03-03T11:37:52.361Z,98731.33
2019-03-03T11:40:37.371Z,98759.88
2019-03-03T11:43:22.029Z,98748.36
2019-03-03T11:45:58.177Z,98746.11
2019-03-03T11:48:44.629Z,98742.11
2019-03-03T11:51:36.816Z,98741.44
2019-03-03T11:54:14.559Z,98739.16
2019-03-03T11:56:50.799Z,98728.02
2019-03-03T11:59:39.906Z,98740.92
2019-03-03T12:02:23.106Z,98731.08
2019-03-03T12:05:15.409Z,98727.24
2019-03-03T12:07:55.192Z,98733.00
2019-03-03T12:10:40.548Z,98713.98
2019-03-03T12:13:24.100Z,98729.13
2019-03-03T12:16:08.888Z,98733.58
2019-03-03T12:18:58.201Z,98721.63
2019-03-03T12:21:43.069Z,98728.13
2019-03-03T12:24:32.432Z,98718.95
2019-03-03T12:27:19.594Z,98730.73
2019-03-03T12:29:56.890Z,98713.37
2019-03-03T12:32:42.180Z,98710.41
2019-03-03T12:35:13.909Z,98724.10
2019-03-03T12:38:02.967Z,98703.53
2019-03-03T12:40:57.836Z,98710.24
2019-03-03T12:43:44.722Z,98714.29
2019-03-03T12:46:17.263Z,98708.45
2019-03-03T12:49:15.500Z,98551.22
2019-03-03T12:52:07.520Z,98692.86
2019-03-03T12:54:53.977Z,98682.06
2019-03-03T12:57:35.163Z,98687.16
2019-03-03T13:00:08.817Z,98704.63
2019-03-03T13:03:04.363Z,98685.24
2019-03-03T13:05:44.025Z,98692.66
2019-03-03T13:08:28.748Z,98692.75
2019-03-03T13:11:27.150Z,98688.04
2019-03-03T13:14:22.344Z,98692.55
2019-03-03T13:16:57.409Z,98693.80
2019-03-03T13:19:34.235Z,98677.99
2019-03-03T13:22:26.596Z,98675.36
2019-03-03T13:25:00.684Z,98669.55
2019-03-03T13:28:01.870Z,98669.39
2019-03-03T13:30:48.252Z,98672.72
2019-03-03T13:33:33.051Z,98639.98
2019-03-03T13:36:18.061Z,98650.89
2019-03-03T13:39:10.557Z,98647.50
2019-03-03T13:41:49.731Z,98654.01
2019-03-03T13:44:16.548Z,98640.06
2019-03-03T13:46:43.310Z,98644.20
2019-03-03T13:49:10.012Z,98636.30
2019-03-03T13:51:36.796Z,98637.25
2019-03-03T13:54:03.874Z,98622.55
2019-03-03T13:56:30.684Z,98612.71
2019-03-03T13:58:57.448Z,98635.04
2019-03-03T14:01:24.347Z,98642.66
2019-03-03T14:03:51.120Z,98632.13
2019-03-03T14:06:20.350Z,98615.02
2019-03-03T14:08:47.048Z,98628.63
2019-03-03T14:11:13.949Z,98631.20
2019-03-03T14:13:40.819Z,98604.77
2019-03-03T14:16:07.561Z,98626.18
2019-03-03T14:18:34.745Z,98629.41
2019-03-03T14:21:01.372Z,98616.94
2019-03-03T14:23:28.134Z,98614.80
2019-03-03T14:25:54.931Z,98616.55
2019-03-03T14:28:21.602Z,98608.13
2019-03-03T14:30:48.443Z,98614.42
2019-03-03T14:33:15.218Z,98612.78
2019-03-03T14:35:42.017Z,98563.66
2019-03-03T14:38:08.799Z,98583.77
2019-03-03T14:40:35.759Z,98592.89
2019-03-03T14:43:02.529Z,98609.91
2019-03-03T14:45:29.354Z,98606.94
2019-03-03T14:47:56.109Z,98579.58
2019-03-03T14:50:22.901Z,98602.89
2019-03-03T14:52:49.589Z,98585.38
2019-03-03T14:55:17.525Z,98592.17
2019-03-03T14:57:44.723Z,98593.95
2019-03-03T15:00:18.065Z,98592.14
2019-03-03T15:02:44.844Z,98591.38
2019-03-03T15:05:11.518Z,98579.53
2019-03-03T15:07:38.346Z,98566.76
2019-03-03T15:10:05.623Z,98565.75
2019-03-03T15:12:32.323Z,98579.69
2019-03-03T15:14:59.120Z,98581.30
2019-03-03T15:17:25.994Z,98570.91
2019-03-03T15:20:12.287Z,98571.57
2019-03-03T15:22:39.227Z,98573.81
2019-03-03T15:25:06.546Z,98565.09
2019-03-03T15:27:33.341Z,98574.13
2019-03-03T15:30:00.008Z,98518.94
2019-03-03T15:32:26.727Z,98558.55
2019-03-03T15:34:53.421Z,98576.22
2019-03-03T15:37:20.237Z,98556.31
2019-03-03T15:39:47.037Z,98555.65
2019-03-03T15:42:13.745Z,98542.66
2019-03-03T15:44:40.532Z,98549.14
2019-03-03T15:47:07.402Z,98548.80
2019-03-03T15:49:34.244Z,98536.16
2019-03-03T15:52:01.089Z,98519.12
2019-03-03T15:54:27.782Z,98524.78
2019-03-03T15:56:54.451Z,98530.94
2019-03-03T15:59:21.174Z,98512.46
2019-03-03T16:01:47.965Z,98496.09
2019-03-03T16:04:14.852Z,98521.38
2019-03-03T16:06:41.641Z,98531.73
2019-03-03T16:09:10.925Z,98539.03
2019-03-03T16:11:37.623Z,98512.81
2019-03-03T16:14:04.426Z,98514.58
2019-03-03T16:16:31.146Z,98517.64
2019-03-03T16:18:57.864Z,98497.42
2019-03-03T16:21:24.669Z,98492.40
2019-03-03T16:23:51.472Z,98509.88
2019-03-03T16:26:18.160Z,98504.19
2019-03-03T16:28:44.987Z,98523.20
2019-03-03T16:31:11.664Z,98485.61
2019-03-03T16:33:38.493Z,98475.88
2019-03-03T16:36:05.513Z,98476.52
2019-03-03T16:38:32.243Z,98482.01
2019-03-03T16:40:59.030Z,98479.73
2019-03-03T16:43:25.760Z,98472.47
2019-03-03T16:45:52.536Z,98448.36
2019-03-03T16:48:19.276Z,98470.38
2019-03-03T16:50:45.966Z,98464.11
2019-03-03T16:53:12.780Z,98447.06
2019-03-03T16:55:39.510Z,98461.31
2019-03-03T16:58:06.718Z,98394.30
2019-03-03T17:00:33.630Z,98449.02
2019-03-03T17:03:00.520Z,98445.29
2019-03-03T17:05:27.329Z,98451.30
2019-03-03T17:07:54.269Z,98438.20
2019-03-03T17:10:21.106Z,98441.95
2019-03-03T17:12:48.004Z,98434.52
2019-03-03T17:15:16.581Z,98448.44
2019-03-03T17:17:43.387Z,98413.14
2019-03-03T17:20:10.193Z,98426.42
2019-03-03T17:22:36.987Z,98408.77
2019-03-03T17:25:06.853Z,98404.88
2019-03-03T17:27:33.650Z,98399.38
2019-03-03T17:30:00.466Z,98403.27
2019-03-03T17:32:27.040Z,98394.02
2019-03-03T17:34:54.542Z,98401.81
2019-03-03T17:37:21.209Z,98402.45
2019-03-03T17:39:47.922Z,98396.98
2019-03-03T17:42:14.626Z,98404.59
2019-03-03T17:44:41.459Z,98387.27
2019-03-03T17:47:08.252Z,98396.81
2019-03-03T17:49:34.917Z,98383.39
2019-03-03T17:52:01.701Z,98391.33
2019-03-03T17:54:28.553Z,98350.64
2019-03-03T17:56:55.256Z,98365.72
2019-03-03T17:59:41.574Z,98377.22
2019-03-03T18:02:08.353Z,98380.29
2019-03-03T18:04:35.053Z,98383.54
2019-03-03T18:07:01.870Z,98372.04
2019-03-03T18:09:28.654Z,98376.89
2019-03-03T18:11:55.471Z,98355.34
2019-03-03T18:14:22.142Z,98365.55
2019-03-03T18:16:48.968Z,98375.09
2019-03-03T18:19:15.774Z,98362.78
2019-03-03T18:21:42.581Z,98352.58
2019-03-03T18:24:09.382Z,98372.19
2019-03-03T18:26:36.101Z,98370.40
2019-03-03T18:29:03.779Z,98375.91
2019-03-03T18:31:30.677Z,98378.68
2019-03-03T18:33:57.413Z,98373.50
2019-03-03T18:36:24.111Z,98365.71
2019-03-03T18:38:50.931Z,98376.91
2019-03-03T18:41:17.711Z,98338.81
2019-03-03T18:43:44.461Z,98361.03
2019-03-03T18:46:11.271Z,98364.27
2019-03-03T18:48:38.110Z,98374.95
2019-03-03T18:51:04.901Z,98357.44
2019-03-03T18:53:31.603Z,98365.09
2019-03-03T18:55:58.305Z,98339.95
2019-03-03T18:58:25.098Z,98360.06
2019-03-03T19:00:51.892Z,98356.80
2019-03-03T19:03:18.699Z,98342.23
2019-03-03T19:05:55.173Z,98346.43
2019-03-03T19:08:14.200Z,98340.11
2019-03-03T19:10:41.025Z,98346.45
2019-03-03T19:13:07.832Z,98335.08
2019-03-03T19:15:34.615Z,98343.83
2019-03-03T19:18:01.453Z,98332.19
2019-03-03T19:20:28.239Z,98335.09
2019-03-03T19:22:55.168Z,98334.62
2019-03-03T19:25:22.347Z,98323.09
2019-03-03T19:27:49.140Z,98311.76
2019-03-03T19:30:20.634Z,98309.14
2019-03-03T19:32:53.222Z,98295.69
2019-03-03T19:35:20.156Z,98288.88
2019-03-03T19:37:46.962Z,98308.98
2019-03-03T19:40:13.903Z,98308.50
2019-03-03T19:42:40.772Z,98288.08
2019-03-03T19:45:11.988Z,98299.92
2019-03-03T19:47:38.673Z,98284.84
2019-03-03T19:50:07.076Z,98295.86
2019-03-03T19:52:33.968Z,98293.77
2019-03-03T19:55:00.597Z,98296.66
2019-03-03T19:57:27.398Z,98288.06
2019-03-03T19:59:54.211Z,98279.14
2019-03-03T20:02:21.022Z,98278.97
2019-03-03T20:04:47.843Z,98270.37
2019-03-03T20:07:14.645Z,98246.55
2019-03-03T20:09:41.465Z,98267.91
2019-03-03T20:12:08.142Z,98251.05
2019-03-03T20:14:34.815Z,98250.75
2019-03-03T20:17:01.634Z,98249.79
2019-03-03T20:19:28.339Z,98227.73
2019-03-03T20:21:54.919Z,98230.37
2019-03-03T20:24:21.717Z,98224.02
2019-03-03T20:26:48.515Z,98220.95
2019-03-03T20:29:15.288Z,98225.15
2019-03-03T20:31:41.996Z,98210.58
2019-03-03T20:34:08.791Z,98211.83
2019-03-03T20:36:35.829Z,98200.67
2019-03-03T20:39:05.393Z,98196.95
2019-03-03T20:41:32.192Z,98190.94
2019-03-03T20:43:58.882Z,98173.25
2019-03-03T20:46:25.575Z,98182.64
2019-03-03T20:48:52.260Z,98184.16
2019-03-03T20:51:19.053Z,98196.30
2019-03-03T20:53:45.768Z,98204.09
2019-03-03T20:56:12.573Z,98190.77
2019-03-03T20:58:39.351Z,98185.53
2019-03-03T21:01:06.151Z,98171.80
2019-03-03T21:03:32.821Z,98167.13
2019-03-03T21:05:59.516Z,98151.44
2019-03-03T21:08:26.185Z,98166.78
2019-03-03T21:10:52.971Z,98163.58
2019-03-03T21:13:19.673Z,98157.70
2019-03-03T21:15:46.375Z,98167.77
2019-03-03T21:18:14.366Z,98155.45
2019-03-03T21:20:41.075Z,98142.80
2019-03-03T21:23:07.982Z,98132.75
2019-03-03T21:25:34.687Z,98141.84
2019-03-03T21:28:01.483Z,98140.89
2019-03-03T21:30:28.275Z,98143.78
2019-03-03T21:32:55.097Z,98123.86
2019-03-03T21:35:22.322Z,98131.45
2019-03-03T21:37:49.431Z,98136.59
2019-03-03T21:40:16.984Z,98145.19
2019-03-03T21:42:43.894Z,98129.73
2019-03-03T21:45:12.349Z,98115.08
2019-03-03T21:47:39.181Z,98112.22
2019-03-03T21:50:08.020Z,98123.16
2019-03-03T21:52:34.724Z,98108.25
2019-03-03T21:55:01.422Z,98152.38
2019-03-03T21:57:28.088Z,98151.62
2019-03-03T21:59:54.689Z,98112.55
2019-03-03T22:02:21.306Z,98093.27
2019-03-03T22:04:47.926Z,98088.09
2019-03-03T22:07:14.619Z,98076.11
2019-03-03T22:09:41.527Z,98103.34
2019-03-03T22:12:08.228Z,98084.55
2019-03-03T22:14:35.092Z,98086.84
2019-03-03T22:17:01.807Z,98088.48
2019-03-03T22:19:28.511Z,98087.79
2019-03-03T22:21:55.243Z,98068.35
2019-03-03T22:24:21.951Z,98060.40
2019-03-03T22:26:48.746Z,98065.05
2019-03-03T22:29:15.470Z,98071.20
2019-03-03T22:34:08.587Z,98059.67
2019-03-03T22:36:35.299Z,98063.02
2019-03-03T22:39:02.579Z,98045.56
2019-03-03T22:41:29.281Z,98039.13
2019-03-03T22:43:56.073Z,98046.53
2019-03-03T22:46:22.865Z,98052.65
2019-03-03T22:48:49.660Z,98044.84
2019-03-03T22:51:16.368Z,98021.11
2019-03-03T22:53:42.939Z,98018.61
2019-03-03T22:56:09.619Z,98016.58
2019-03-03T22:58:36.322Z,98016.49
2019-03-03T23:01:13.322Z,98028.16
2019-03-03T23:04:04.765Z,98021.55
2019-03-03T23:06:42.038Z,98021.19
2019-03-03T23:09:47.899Z,98004.39
2019-03-03T23:12:38.012Z,98003.55
2019-03-03T23:15:14.774Z,98018.87
2019-03-03T23:18:03.540Z,97983.24
2019-03-03T23:20:57.019Z,97994.39
2019-03-03T23:23:44.180Z,97982.56
2019-03-03T23:26:16.676Z,97956.19
2019-03-03T23:28:40.429Z,97957.24
2019-03-03T23:31:07.216Z,97934.44
2019-03-03T23:33:34.029Z,97944.48
2019-03-03T23:36:00.730Z,97944.97
2019-03-03T23:38:27.554Z,97951.30
2019-03-03T23:40:54.239Z,97934.84
2019-03-03T23:43:20.935Z,97923.39
2019-03-03T23:45:47.810Z,97909.53
2019-03-03T23:48:14.497Z,97928.42
2019-03-03T23:50:41.284Z,97909.95
2019-03-03T23:53:08.101Z,97895.53
2019-03-03T23:55:34.915Z,97894.17
2019-03-03T23:58:01.602Z,97871.90
